createdAt,value
2023-04-16T00:02:14.823Z,102307.28
2023-04-16T00:04:41.546Z,102313.28
2023-04-16T00:07:08.220Z,102310.53
2023-04-16T00:09:34.790Z,102307.53
2023-04-16T00:12:01.381Z,102305.09
2023-04-16T00:14:27.947Z,102304.53
2023-04-16T00:16:54.469Z,102311.63
2023-04-16T00:19:21.031Z,102308.91
2023-04-16T00:21:47.605Z,102312.72
2023-04-16T00:24:14.123Z,102304.53
2023-04-16T00:26:41.038Z,102311.63
2023-04-16T00:29:07.683Z,102315.72
2023-04-16T00:31:34.620Z,102311.09
2023-04-16T00:34:03.181Z,102313.81
2023-04-16T00:36:29.803Z,102313.00
2023-04-16T00:38:57.013Z,102312.72
2023-04-16T00:41:23.868Z,102314.38
2023-04-16T00:43:51.536Z,102314.91
2023-04-16T00:46:21.087Z,102313.00
2023-04-16T00:48:47.584Z,102310.53
2023-04-16T00:51:14.483Z,102308.34
2023-04-16T00:53:41.135Z,102312.72
2023-04-16T00:56:07.759Z,102315.44
2023-04-16T00:58:35.609Z,102304.78
2023-04-16T01:01:02.487Z,102307.78
2023-04-16T01:03:38.332Z,102305.34
2023-04-16T01:06:06.398Z,102310.78
2023-04-16T01:08:32.940Z,102310.50
2023-04-16T01:11:01.105Z,102309.16
2023-04-16T01:13:27.649Z,102315.44
2023-04-16T01:15:54.240Z,102311.63
2023-04-16T01:18:22.167Z,102308.63
2023-04-16T01:20:50.764Z,102313.25
2023-04-16T01:23:18.706Z,102303.97
2023-04-16T01:25:46.274Z,102312.16
2023-04-16T01:28:13.207Z,102311.34
2023-04-16T01:30:39.771Z,102310.53
2023-04-16T01:33:18.993Z,102314.91
2023-04-16T01:35:46.719Z,102322.53
2023-04-16T01:38:15.417Z,102322.53
2023-04-16T01:40:41.953Z,102319.81
2023-04-16T01:43:08.444Z,102326.38
2023-04-16T01:45:35.546Z,102323.38
2023-04-16T01:48:03.022Z,102318.72
2023-04-16T01:50:30.824Z,102312.72
2023-04-16T01:52:57.253Z,102320.09
2023-04-16T01:55:23.730Z,102326.38
2023-04-16T01:57:50.757Z,102322.53
2023-04-16T02:00:17.273Z,102318.44
2023-04-16T02:02:46.974Z,102331.28
2023-04-16T02:05:19.632Z,102322.28
2023-04-16T02:07:46.526Z,102318.19
2023-04-16T02:10:12.974Z,102321.47
2023-04-16T02:12:40.111Z,102324.19
2023-04-16T02:15:07.370Z,102321.47
2023-04-16T02:17:34.634Z,102323.09
2023-04-16T02:20:09.477Z,102320.38
2023-04-16T02:22:39.555Z,102320.09
2023-04-16T02:25:06.448Z,102319.00
2023-04-16T02:27:33.188Z,102318.19
2023-04-16T02:30:15.727Z,102319.84
2023-04-16T02:32:42.265Z,102317.91
2023-04-16T02:35:08.958Z,102317.09
2023-04-16T02:37:35.541Z,102315.75
2023-04-16T02:40:02.161Z,102321.75
2023-04-16T02:42:29.462Z,102319.84
2023-04-16T02:44:56.262Z,102317.09
2023-04-16T02:47:22.749Z,102314.38
2023-04-16T02:49:49.505Z,102318.75
2023-04-16T02:52:15.905Z,102323.38
2023-04-16T02:54:42.343Z,102325.31
2023-04-16T02:57:08.810Z,102321.47
2023-04-16T02:59:35.519Z,102330.75
2023-04-16T03:02:02.092Z,102324.47
2023-04-16T03:04:28.794Z,102323.13
2023-04-16T03:06:55.312Z,102326.94
2023-04-16T03:09:21.765Z,102320.38
2023-04-16T03:11:48.280Z,102325.84
2023-04-16T03:14:16.669Z,102328.84
2023-04-16T03:16:43.118Z,102332.41
2023-04-16T03:19:09.869Z,102335.41
2023-04-16T03:21:36.463Z,102332.94
2023-04-16T03:24:02.976Z,102342.78
2023-04-16T03:26:29.413Z,102341.69
2023-04-16T03:28:55.926Z,102338.97
2023-04-16T03:31:24.585Z,102343.34
2023-04-16T03:33:51.716Z,102337.88
2023-04-16T03:36:18.186Z,102341.69
2023-04-16T03:38:44.821Z,102347.16
2023-04-16T03:41:11.356Z,102350.97
2023-04-16T03:43:37.806Z,102338.41
2023-04-16T03:46:04.921Z,102353.16
2023-04-16T03:48:31.725Z,102348.50
2023-04-16T03:50:58.703Z,102353.97
2023-04-16T03:53:25.338Z,102349.59
2023-04-16T03:55:52.532Z,102353.16
2023-04-16T03:58:20.197Z,102349.34
2023-04-16T04:00:47.583Z,102353.16
2023-04-16T04:03:18.910Z,102344.97
2023-04-16T04:05:48.236Z,102346.88
2023-04-16T04:08:19.960Z,102346.06
2023-04-16T04:10:46.499Z,102346.06
2023-04-16T04:13:14.220Z,102352.59
2023-04-16T04:15:41.023Z,102353.44
2023-04-16T04:18:07.578Z,102349.88
2023-04-16T04:20:34.072Z,102353.16
2023-04-16T04:23:01.848Z,102353.16
2023-04-16T04:25:28.403Z,102349.88
2023-04-16T04:27:54.912Z,102360.25
2023-04-16T04:30:22.082Z,102359.16
2023-04-16T04:32:48.638Z,102361.06
2023-04-16T04:35:16.243Z,102362.44
2023-04-16T04:37:42.784Z,102367.88
2023-04-16T04:40:14.462Z,102376.09
2023-04-16T04:42:40.972Z,102365.16
2023-04-16T04:45:08.298Z,102375.53
2023-04-16T04:47:35.473Z,102373.63
2023-04-16T04:50:02.058Z,102378.81
2023-04-16T04:52:29.595Z,102380.72
2023-04-16T04:54:56.340Z,102386.19
2023-04-16T04:57:22.824Z,102385.38
2023-04-16T04:59:52.852Z,102382.09
2023-04-16T05:02:19.688Z,102390.81
2023-04-16T05:04:46.297Z,102378.81
2023-04-16T05:07:12.748Z,102385.38
2023-04-16T05:09:39.252Z,102373.88
2023-04-16T05:12:05.896Z,102379.63
2023-04-16T05:14:32.366Z,102389.44
2023-04-16T05:16:58.901Z,102387.00
2023-04-16T05:19:25.457Z,102389.44
2023-04-16T05:21:51.888Z,102382.09
2023-04-16T05:24:18.323Z,102384.28
2023-04-16T05:26:44.872Z,102387.28
2023-04-16T05:29:11.687Z,102392.47
2023-04-16T05:31:38.813Z,102388.09
2023-04-16T05:34:05.321Z,102397.66
2023-04-16T05:36:31.848Z,102394.66
2023-04-16T05:38:58.634Z,102396.56
2023-04-16T05:41:25.513Z,102403.94
2023-04-16T05:43:52.045Z,102397.13
2023-04-16T05:46:18.543Z,102393.56
2023-04-16T05:48:45.964Z,102405.31
2023-04-16T05:51:12.874Z,102401.50
2023-04-16T05:53:39.543Z,102401.78
2023-04-16T05:56:06.419Z,102406.16
2023-04-16T05:58:32.925Z,102419.25
2023-04-16T06:01:01.109Z,102408.06
2023-04-16T06:03:28.063Z,102411.88
2023-04-16T06:05:54.655Z,102409.44
2023-04-16T06:08:21.258Z,102417.34
2023-04-16T06:10:48.250Z,102419.81
2023-04-16T06:13:14.843Z,102420.63
2023-04-16T06:15:41.349Z,102421.47
2023-04-16T06:18:07.825Z,102419.28
2023-04-16T06:20:34.403Z,102420.09
2023-04-16T06:23:01.091Z,102431.28
2023-04-16T06:25:27.491Z,102426.66
2023-04-16T06:27:54.016Z,102435.66
2023-04-16T06:30:20.968Z,102435.13
2023-04-16T06:32:48.069Z,102435.97
2023-04-16T06:35:16.864Z,102434.31
2023-04-16T06:37:43.354Z,102438.13
2023-04-16T06:40:10.557Z,102446.06
2023-04-16T06:42:36.982Z,102452.06
2023-04-16T06:45:03.727Z,102443.88
2023-04-16T06:47:30.250Z,102448.25
2023-04-16T06:49:56.891Z,102444.16
2023-04-16T06:52:23.345Z,102449.06
2023-04-16T06:54:49.801Z,102450.44
2023-04-16T06:57:16.417Z,102452.34
2023-04-16T06:59:42.968Z,102452.09
2023-04-16T07:02:10.557Z,102448.53
2023-04-16T07:04:37.592Z,102466.56
2023-04-16T07:07:04.122Z,102460.28
2023-04-16T07:09:32.651Z,102461.91
2023-04-16T07:11:59.576Z,102469.03
2023-04-16T07:14:26.244Z,102474.50
2023-04-16T07:16:52.941Z,102467.94
2023-04-16T07:19:19.417Z,102476.41
2023-04-16T07:21:46.334Z,102474.78
2023-04-16T07:24:14.070Z,102476.44
2023-04-16T07:26:41.086Z,102476.72
2023-04-16T07:29:07.801Z,102474.53
2023-04-16T07:31:34.489Z,102486.03
2023-04-16T07:34:01.107Z,102487.09
2023-04-16T07:36:28.265Z,102488.78
2023-04-16T07:38:54.757Z,102491.25
2023-04-16T07:41:24.227Z,102494.78
2023-04-16T07:43:54.885Z,102487.41
2023-04-16T07:46:21.989Z,102489.06
2023-04-16T07:48:48.493Z,102502.47
2023-04-16T07:51:15.380Z,102493.16
2023-04-16T07:53:43.396Z,102489.88
2023-04-16T07:56:09.912Z,102508.75
2023-04-16T07:58:36.497Z,102511.50
2023-04-16T08:01:03.043Z,102510.09
2023-04-16T08:03:30.089Z,102512.28
2023-04-16T08:05:56.652Z,102520.50
2023-04-16T08:08:23.086Z,102518.31
2023-04-16T08:10:49.616Z,102514.50
2023-04-16T08:13:16.081Z,102519.16
2023-04-16T08:15:42.612Z,102523.28
2023-04-16T08:18:12.994Z,102528.75
2023-04-16T08:20:39.574Z,102529.03
2023-04-16T08:23:06.154Z,102535.31
2023-04-16T08:25:32.750Z,102535.31
2023-04-16T08:27:59.491Z,102538.03
2023-04-16T08:30:26.000Z,102539.13
2023-04-16T08:32:52.921Z,102538.88
2023-04-16T08:35:21.339Z,102544.06
2023-04-16T08:37:47.746Z,102540.53
2023-04-16T08:40:14.315Z,102544.09
2023-04-16T08:42:45.849Z,102547.06
2023-04-16T08:45:17.540Z,102541.88
2023-04-16T08:47:54.693Z,102547.63
2023-04-16T08:50:26.075Z,102546.81
2023-04-16T08:52:56.572Z,102558.84
2023-04-16T08:55:31.060Z,102556.94
2023-04-16T08:58:02.705Z,102549.00
2023-04-16T09:00:31.563Z,102553.94
2023-04-16T09:02:58.826Z,102557.22
2023-04-16T09:05:27.058Z,102551.47
2023-04-16T09:07:54.591Z,102561.06
2023-04-16T09:10:21.808Z,102547.91
2023-04-16T09:12:48.216Z,102561.84
2023-04-16T09:15:14.722Z,102561.03
2023-04-16T09:17:41.415Z,102561.88
2023-04-16T09:20:09.116Z,102564.06
2023-04-16T09:22:39.987Z,102565.97
2023-04-16T09:25:07.357Z,102564.06
2023-04-16T09:27:34.135Z,102571.16
2023-04-16T09:30:00.812Z,102570.63
2023-04-16T09:32:28.732Z,102569.25
2023-04-16T09:34:57.692Z,102578.03
2023-04-16T09:37:26.050Z,102578.03
2023-04-16T09:40:03.977Z,102581.00
2023-04-16T09:42:32.866Z,102583.19
2023-04-16T09:45:01.405Z,102582.91
2023-04-16T09:47:45.800Z,102588.94
2023-04-16T09:50:18.614Z,102594.44
2023-04-16T09:52:51.916Z,102594.16
2023-04-16T09:55:23.426Z,102600.44
2023-04-16T09:57:58.889Z,102603.19
2023-04-16T10:00:25.578Z,102602.91
2023-04-16T10:03:03.985Z,102602.09
2023-04-16T10:05:30.635Z,102601.53
2023-04-16T10:08:01.173Z,102607.28
2023-04-16T10:10:27.931Z,102602.63
2023-04-16T10:12:57.917Z,102612.50
2023-04-16T10:15:25.681Z,102605.91
2023-04-16T10:17:55.846Z,102605.38
2023-04-16T10:20:22.713Z,102611.66
2023-04-16T10:22:49.603Z,102603.44
2023-04-16T10:25:16.890Z,102607.56
2023-04-16T10:27:44.410Z,102604.53
2023-04-16T10:30:11.660Z,102613.59
2023-04-16T10:32:38.471Z,102608.66
2023-04-16T10:35:05.657Z,102609.75
2023-04-16T10:37:32.703Z,102610.03
2023-04-16T10:39:59.955Z,102610.28
2023-04-16T10:42:27.505Z,102610.84
2023-04-16T10:44:54.008Z,102611.66
2023-04-16T10:47:24.848Z,102611.94
2023-04-16T10:49:51.863Z,102615.22
2023-04-16T10:52:18.525Z,102614.69
2023-04-16T10:54:49.125Z,102615.78
2023-04-16T10:57:19.568Z,102620.16
2023-04-16T10:59:48.601Z,102618.50
2023-04-16T11:02:21.142Z,102613.25
2023-04-16T11:04:49.448Z,102615.72
2023-04-16T11:07:17.852Z,102616.81
2023-04-16T11:09:46.452Z,102621.47
2023-04-16T11:12:15.285Z,102614.09
2023-04-16T11:14:42.812Z,102614.06
2023-04-16T11:17:10.260Z,102618.19
2023-04-16T11:19:38.121Z,102625.59
2023-04-16T11:22:05.356Z,102619.53
2023-04-16T11:24:32.589Z,102613.25
2023-04-16T11:26:59.308Z,102623.09
2023-04-16T11:29:25.869Z,102624.75
2023-04-16T11:31:53.881Z,102625.84
2023-04-16T11:34:21.264Z,102627.19
2023-04-16T11:36:51.472Z,102620.03
2023-04-16T11:39:18.644Z,102622.22
2023-04-16T11:41:46.127Z,102630.97
2023-04-16T11:44:23.717Z,102621.94
2023-04-16T11:46:51.357Z,102630.72
2023-04-16T11:49:18.416Z,102630.22
2023-04-16T11:51:46.789Z,102626.63
2023-04-16T11:54:24.536Z,102629.94
2023-04-16T11:56:54.823Z,102626.34
2023-04-16T11:59:24.166Z,102630.44
2023-04-16T12:01:52.826Z,102625.22
2023-04-16T12:04:21.019Z,102627.16
2023-04-16T12:07:12.774Z,102635.66
2023-04-16T12:09:43.819Z,102630.97
2023-04-16T12:12:31.130Z,102632.09
2023-04-16T12:15:00.212Z,102635.09
2023-04-16T12:17:26.895Z,102632.09
2023-04-16T12:19:57.957Z,102639.75
2023-04-16T12:22:36.776Z,102637.25
2023-04-16T12:25:06.078Z,102642.75
2023-04-16T12:27:41.902Z,102642.16
2023-04-16T12:30:08.921Z,102649.84
2023-04-16T12:32:35.508Z,102643.03
2023-04-16T12:35:02.406Z,102649.88
2023-04-16T12:37:30.671Z,102644.69
2023-04-16T12:39:57.334Z,102650.72
2023-04-16T12:42:23.784Z,102645.53
2023-04-16T12:44:51.742Z,102646.34
2023-04-16T12:47:18.375Z,102654.56
2023-04-16T12:49:45.733Z,102653.47
2023-04-16T12:52:12.562Z,102643.59
2023-04-16T12:54:39.157Z,102651.53
2023-04-16T12:57:08.554Z,102661.13
2023-04-16T12:59:35.027Z,102658.34
2023-04-16T13:02:02.518Z,102654.47
2023-04-16T13:04:29.206Z,102656.09
2023-04-16T13:06:55.928Z,102657.72
2023-04-16T13:09:22.397Z,102655.22
2023-04-16T13:11:48.891Z,102654.13
2023-04-16T13:14:15.816Z,102647.53
2023-04-16T13:16:43.287Z,102651.69
2023-04-16T13:19:10.049Z,102652.75
2023-04-16T13:21:36.989Z,102650.50
2023-04-16T13:24:04.472Z,102650.00
2023-04-16T13:26:31.005Z,102643.44
2023-04-16T13:28:57.517Z,102647.75
2023-04-16T13:31:24.499Z,102647.47
2023-04-16T13:33:50.984Z,102647.19
2023-04-16T13:36:17.486Z,102642.22
2023-04-16T13:38:44.146Z,102640.84
2023-04-16T13:41:11.275Z,102645.00
2023-04-16T13:43:37.736Z,102654.06
2023-04-16T13:46:04.436Z,102655.22
2023-04-16T13:48:31.092Z,102647.28
2023-04-16T13:50:57.534Z,102651.13
2023-04-16T13:53:24.085Z,102653.25
2023-04-16T13:55:52.183Z,102644.19
2023-04-16T13:58:18.676Z,102648.59
2023-04-16T14:00:45.392Z,102651.31
2023-04-16T14:03:14.991Z,102650.00
2023-04-16T14:05:43.369Z,102644.19
2023-04-16T14:08:10.140Z,102646.38
2023-04-16T14:10:38.723Z,102648.28
2023-04-16T14:13:05.381Z,102651.56
2023-04-16T14:15:31.887Z,102640.56
2023-04-16T14:17:58.591Z,102648.19
2023-04-16T14:20:25.347Z,102638.31
2023-04-16T14:22:51.899Z,102638.88
2023-04-16T14:25:18.473Z,102646.19
2023-04-16T14:27:45.016Z,102638.72
2023-04-16T14:30:11.619Z,102636.72
2023-04-16T14:32:38.167Z,102632.59
2023-04-16T14:35:05.442Z,102633.69
2023-04-16T14:37:31.955Z,102639.69
2023-04-16T14:39:58.626Z,102641.28
2023-04-16T14:42:25.082Z,102635.78
2023-04-16T14:44:52.181Z,102646.88
2023-04-16T14:47:19.183Z,102650.50
2023-04-16T14:49:45.617Z,102643.38
2023-04-16T14:52:13.529Z,102640.06
2023-04-16T14:54:40.039Z,102642.25
2023-04-16T14:57:06.831Z,102631.50
2023-04-16T14:59:33.494Z,102633.66
2023-04-16T15:02:00.131Z,102635.47
2023-04-16T15:04:26.993Z,102633.53
2023-04-16T15:06:55.668Z,102626.44
2023-04-16T15:09:27.043Z,102634.66
2023-04-16T15:11:53.972Z,102629.13
2023-04-16T15:14:21.649Z,102624.72
2023-04-16T15:16:48.600Z,102632.34
2023-04-16T15:19:15.121Z,102628.53
2023-04-16T15:21:41.613Z,102636.22
2023-04-16T15:24:08.502Z,102627.41
2023-04-16T15:26:35.608Z,102632.16
2023-04-16T15:29:02.185Z,102635.47
2023-04-16T15:31:28.766Z,102633.00
2023-04-16T15:33:56.120Z,102632.19
2023-04-16T15:36:24.699Z,102636.94
2023-04-16T15:38:51.218Z,102642.72
2023-04-16T15:41:17.809Z,102642.47
2023-04-16T15:43:45.001Z,102640.25
2023-04-16T15:46:15.076Z,102642.47
2023-04-16T15:48:41.583Z,102635.56
2023-04-16T15:51:13.566Z,102636.97
2023-04-16T15:53:45.558Z,102630.66
2023-04-16T16:00:43.144Z,102631.84
2023-04-16T16:03:14.791Z,102634.25
2023-04-16T16:05:52.167Z,102636.47
2023-04-16T16:08:50.836Z,102627.94
2023-04-16T16:15:55.190Z,102631.66
2023-04-16T16:18:24.994Z,102628.03
2023-04-16T16:21:55.932Z,102635.50
2023-04-16T16:24:51.848Z,102634.72
2023-04-16T16:27:29.110Z,102633.38
2023-04-16T16:29:55.809Z,102634.47
2023-04-16T16:32:22.515Z,102630.63
2023-04-16T16:35:01.509Z,102638.00
2023-04-16T16:37:55.760Z,102637.19
2023-04-16T16:40:34.965Z,102630.34
2023-04-16T16:43:27.689Z,102641.03
2023-04-16T16:45:57.041Z,102629.25
2023-04-16T16:48:23.751Z,102643.25
2023-04-16T16:50:53.332Z,102637.25
2023-04-16T16:53:19.960Z,102641.66
2023-04-16T16:55:47.471Z,102652.13
2023-04-16T16:58:14.284Z,102651.88
2023-04-16T17:00:52.505Z,102647.19
2023-04-16T17:03:19.393Z,102649.41
2023-04-16T17:09:12.999Z,102658.22
2023-04-16T17:11:39.945Z,102647.84
2023-04-16T17:15:09.242Z,102657.75
2023-04-16T17:17:35.941Z,102658.88
2023-04-16T17:20:34.497Z,102657.22
2023-04-16T17:23:10.474Z,102656.69
2023-04-16T17:25:39.067Z,102664.41
2023-04-16T17:28:07.838Z,102672.38
2023-04-16T17:30:59.597Z,102665.53
2023-04-16T17:33:26.139Z,102675.94
2023-04-16T17:35:52.672Z,102676.25
2023-04-16T17:38:19.132Z,102678.44
2023-04-16T17:40:45.638Z,102682.25
2023-04-16T17:43:12.195Z,102683.06
2023-04-16T17:45:41.711Z,102691.28
2023-04-16T17:48:08.352Z,102692.13
2023-04-16T17:50:35.712Z,102691.84
2023-04-16T17:53:03.905Z,102703.91
2023-04-16T17:55:31.254Z,102697.06
2023-04-16T17:58:05.312Z,102697.34
2023-04-16T18:00:31.796Z,102700.94
2023-04-16T18:02:59.794Z,102700.38
2023-04-16T18:05:27.364Z,102696.81
2023-04-16T18:07:55.380Z,102703.41
2023-04-16T18:10:21.930Z,102711.91
2023-04-16T18:12:48.560Z,102708.88
2023-04-16T18:16:07.680Z,102710.56
2023-04-16T18:18:34.449Z,102705.88
2023-04-16T18:21:03.908Z,102710.53
2023-04-16T18:23:32.243Z,102720.94
2023-04-16T18:25:58.668Z,102713.53
2023-04-16T18:28:27.191Z,102716.00
2023-04-16T18:30:53.767Z,102714.34
2023-04-16T18:33:48.848Z,102723.13
2023-04-16T18:38:59.956Z,102728.06
2023-04-16T18:41:27.938Z,102727.78
2023-04-16T18:43:54.524Z,102726.97
2023-04-16T18:46:21.122Z,102733.81
2023-04-16T18:48:48.310Z,102741.19
2023-04-16T18:51:16.303Z,102747.75
2023-04-16T18:53:44.193Z,102740.38
2023-04-16T18:56:11.626Z,102739.53
2023-04-16T18:58:38.178Z,102751.31
2023-04-16T19:01:05.240Z,102746.66
2023-04-16T19:03:33.738Z,102751.00
2023-04-16T19:06:00.376Z,102755.66
2023-04-16T19:08:27.109Z,102751.28
2023-04-16T19:10:53.555Z,102755.63
2023-04-16T19:13:20.105Z,102747.13
2023-04-16T19:15:46.635Z,102759.44
2023-04-16T19:18:14.285Z,102750.16
2023-04-16T19:20:40.905Z,102763.00
2023-04-16T19:23:09.163Z,102758.63
2023-04-16T19:25:38.762Z,102752.59
2023-04-16T19:28:05.474Z,102754.78
2023-04-16T19:30:32.014Z,102753.13
2023-04-16T19:32:58.682Z,102757.22
2023-04-16T19:35:25.411Z,102751.75
2023-04-16T19:37:51.913Z,102753.41
2023-04-16T19:40:18.650Z,102750.09
2023-04-16T19:42:45.297Z,102754.75
2023-04-16T19:45:11.770Z,102756.91
2023-04-16T19:47:38.249Z,102755.25
2023-04-16T19:50:05.063Z,102752.53
2023-04-16T19:52:37.266Z,102753.66
2023-04-16T19:55:04.176Z,102756.38
2023-04-16T19:57:30.649Z,102762.41
2023-04-16T19:59:57.474Z,102766.22
2023-04-16T20:02:24.030Z,102760.75
2023-04-16T20:04:52.856Z,102761.81
2023-04-16T20:07:20.395Z,102759.06
2023-04-16T20:09:46.818Z,102761.28
2023-04-16T20:12:14.600Z,102767.84
2023-04-16T20:14:41.913Z,102770.31
2023-04-16T20:17:10.156Z,102775.50
2023-04-16T20:19:40.719Z,102769.50
2023-04-16T20:22:07.146Z,102773.59
2023-04-16T20:24:34.313Z,102765.94
2023-04-16T20:27:01.710Z,102764.03
2023-04-16T20:29:28.290Z,102766.22
2023-04-16T20:31:54.802Z,102756.13
2023-04-16T20:34:21.209Z,102765.41
2023-04-16T20:36:47.748Z,102766.75
2023-04-16T20:39:14.649Z,102765.13
2023-04-16T20:41:44.294Z,102762.91
2023-04-16T20:44:17.937Z,102766.75
2023-04-16T20:46:49.859Z,102757.16
2023-04-16T20:49:18.444Z,102753.59
2023-04-16T20:51:44.909Z,102757.41
2023-04-16T20:54:13.518Z,102753.59
2023-04-16T20:56:40.073Z,102753.84
2023-04-16T20:59:06.533Z,102757.41
2023-04-16T21:01:33.100Z,102755.22
2023-04-16T21:03:59.744Z,102741.81
2023-04-16T21:06:26.287Z,102746.19
2023-04-16T21:08:52.758Z,102738.50
2023-04-16T21:11:21.333Z,102751.91
2023-04-16T21:13:47.798Z,102750.84
2023-04-16T21:16:14.248Z,102749.22
2023-04-16T21:18:40.934Z,102748.13
2023-04-16T21:21:07.457Z,102746.75
2023-04-16T21:23:33.884Z,102750.00
2023-04-16T21:26:00.331Z,102754.66
2023-04-16T21:28:26.846Z,102752.16
2023-04-16T21:30:53.321Z,102743.09
2023-04-16T21:33:19.740Z,102754.00
2023-04-16T21:35:52.033Z,102756.19
2023-04-16T21:38:19.800Z,102753.97
2023-04-16T21:40:50.475Z,102750.69
2023-04-16T21:43:17.826Z,102754.50
2023-04-16T21:45:44.275Z,102750.69
2023-04-16T21:48:10.789Z,102747.41
2023-04-16T21:50:37.354Z,102752.06
2023-04-16T21:53:06.282Z,102749.31
2023-04-16T21:55:34.595Z,102752.88
2023-04-16T21:58:01.539Z,102755.06
2023-04-16T22:00:28.211Z,102756.44
2023-04-16T22:02:55.947Z,102755.06
2023-04-16T22:05:25.799Z,102755.63
2023-04-16T22:07:52.840Z,102752.88
2023-04-16T22:10:19.434Z,102750.16
2023-04-16T22:12:46.446Z,102753.44
2023-04-16T22:15:14.856Z,102750.16
2023-04-16T22:17:41.426Z,102751.25
2023-04-16T22:20:11.511Z,102752.59
2023-04-16T22:22:38.633Z,102754.75
2023-04-16T22:25:05.768Z,102748.47
2023-04-16T22:27:32.913Z,102746.25
2023-04-16T22:30:00.003Z,102740.47
2023-04-16T22:32:26.564Z,102747.28
2023-04-16T22:34:53.410Z,102745.69
2023-04-16T22:37:19.902Z,102745.69
2023-04-16T22:39:46.372Z,102747.84
2023-04-16T22:42:12.891Z,102751.91
2023-04-16T22:44:39.542Z,102750.53
2023-04-16T22:47:06.022Z,102748.06
2023-04-16T22:49:33.237Z,102746.69
2023-04-16T22:52:02.993Z,102748.59
2023-04-16T22:54:30.710Z,102754.31
2023-04-16T22:56:57.491Z,102748.03
2023-04-16T22:59:24.868Z,102753.75
2023-04-16T23:01:51.829Z,102740.91
2023-04-16T23:04:18.671Z,102744.47
2023-04-16T23:06:46.241Z,102746.06
2023-04-16T23:09:14.270Z,102747.16
2023-04-16T23:11:40.941Z,102755.66
2023-04-16T23:14:08.303Z,102760.81
2023-04-16T23:16:34.856Z,102745.00
2023-04-16T23:19:01.275Z,102745.00
2023-04-16T23:21:27.877Z,102747.16
2023-04-16T23:23:54.423Z,102745.50
2023-04-16T23:26:20.831Z,102757.56
2023-04-16T23:28:47.295Z,102758.38
2023-04-16T23:31:13.896Z,102759.47
2023-04-16T23:33:40.646Z,102758.91
2023-04-16T23:36:07.675Z,102759.72
2023-04-16T23:38:34.188Z,102762.19
2023-04-16T23:41:03.453Z,102755.91
2023-04-16T23:43:29.957Z,102765.75
2023-04-16T23:45:56.423Z,102761.13
2023-04-16T23:48:22.876Z,102760.28
2023-04-16T23:50:49.410Z,102764.09
2023-04-16T23:53:15.852Z,102766.28
2023-04-16T23:55:42.308Z,102761.06
2023-04-16T23:58:08.714Z,102756.69
